TimeHST,TemperatureF,Dew PointF,Humidity,Sea Level PressureIn,VisibilityMPH,Wind Direction,Wind SpeedMPH,Gust SpeedMPH,PrecipitationIn,Events,Conditions,WindDirDegrees,DateUTC
12:54 AM,73.9,66.0,76,30.02,10.0,NNE,4.6,-,N/A,,Clear,20,2013-09-04 10:54:00
1:54 AM,71.1,66.0,84,30.01,10.0,SE,3.5,-,N/A,,Clear,130,2013-09-04 11:54:00
2:54 AM,69.1,66.0,90,30.00,10.0,Calm,Calm,-,N/A,,Overcast,0,2013-09-04 12:54:00
3:54 AM,73.0,66.0,79,30.00,10.0,North,4.6,-,N/A,,Overcast,10,2013-09-04 13:54:00
4:54 AM,75.0,68.0,79,30.00,10.0,North,8.1,-,N/A,,Partly Cloudy,10,2013-09-04 14:54:00
5:54 AM,73.9,68.0,82,30.02,10.0,Calm,Calm,-,N/A,,Mostly Cloudy,0,2013-09-04 15:54:00
6:54 AM,73.9,66.9,79,30.03,10.0,East,10.4,19.6,N/A,,Overcast,90,2013-09-04 16:54:00
7:54 AM,77.0,66.0,69,30.04,10.0,NNE,5.8,-,0.00,,Smoke,20,2013-09-04 17:54:00
8:54 AM,79.0,66.9,66,30.04,10.0,North,10.4,-,0.00,,Mostly Cloudy,360,2013-09-04 18:54:00
9:54 AM,82.0,69.1,65,30.05,10.0,North,11.5,-,N/A,,Partly Cloudy,360,2013-09-04 19:54:00
10:54 AM,81.0,71.1,72,30.05,10.0,North,13.8,-,N/A,,Scattered Clouds,360,2013-09-04 20:54:00
11:54 AM,82.9,69.1,63,30.03,10.0,NNE,15.0,-,N/A,,Mostly Cloudy,20,2013-09-04 21:54:00
12:54 PM,86.0,66.0,51,30.01,10.0,North,12.7,-,N/A,,Mostly Cloudy,350,2013-09-04 22:54:00
1:54 PM,87.1,69.1,55,29.99,10.0,NNE,18.4,-,N/A,,Mostly Cloudy,20,2013-09-04 23:54:00
2:54 PM,84.9,70.0,61,29.98,10.0,NNE,19.6,-,N/A,,Mostly Cloudy,30,2013-09-05 00:54:00
3:54 PM,84.9,70.0,61,29.98,10.0,NNE,19.6,-,N/A,,Scattered Clouds,30,2013-09-05 01:54:00
4:54 PM,84.0,70.0,63,29.98,10.0,NNE,19.6,-,N/A,,Scattered Clouds,30,2013-09-05 02:54:00
5:54 PM,81.0,72.0,74,29.99,10.0,NNE,17.3,-,N/A,,Partly Cloudy,30,2013-09-05 03:54:00
6:54 PM,79.0,69.1,72,30.01,10.0,NE,13.8,-,N/A,,Partly Cloudy,40,2013-09-05 04:54:00
7:54 PM,77.0,69.1,76,30.01,10.0,NE,13.8,-,N/A,,Clear,50,2013-09-05 05:54:00
8:54 PM,75.0,64.9,71,30.04,10.0,NE,10.4,-,N/A,,Partly Cloudy,50,2013-09-05 06:54:00
9:54 PM,71.1,63.0,75,30.05,10.0,Variable,4.6,-,N/A,,Clear,0,2013-09-05 07:54:00
10:54 PM,69.1,64.0,84,30.04,-9999.0,SSW,3.5,-,N/A,,Unknown,200,2013-09-05 08:54:00
11:54 PM,72.0,66.0,81,30.04,10.0,Variable,4.6,-,N/A,,Clear,0,2013-09-05 09:54:00